createdAt,value
2019-03-15T00:00:28.534Z,13.10
2019-03-15T00:03:01.946Z,13.93
2019-03-15T00:05:42.689Z,15.10
2019-03-15T00:08:17.049Z,14.20
2019-03-15T00:10:51.974Z,15.00
2019-03-15T00:13:25.238Z,12.87
2019-03-15T00:15:58.419Z,13.83
2019-03-15T00:18:31.847Z,13.80
2019-03-15T00:21:05.998Z,16.13
2019-03-15T00:23:39.407Z,17.07
2019-03-15T00:26:12.798Z,17.53
2019-03-15T00:28:47.221Z,17.20
2019-03-15T00:31:21.999Z,19.83
2019-03-15T00:33:56.722Z,21.33
2019-03-15T00:36:30.244Z,19.30
2019-03-15T00:39:03.545Z,17.93
2019-03-15T00:41:36.915Z,20.30
2019-03-15T00:44:11.712Z,19.67
2019-03-15T00:46:45.336Z,19.03
2019-03-15T00:49:18.590Z,20.77
2019-03-15T00:51:51.977Z,18.02
2019-03-15T00:54:25.402Z,19.40
2019-03-15T00:56:58.785Z,19.40
2019-03-15T00:59:34.153Z,16.53
2019-03-15T01:02:07.518Z,15.72
2019-03-15T01:04:40.960Z,14.03
2019-03-15T01:07:14.239Z,14.07
2019-03-15T01:09:47.559Z,13.20
2019-03-15T01:12:21.160Z,14.50
2019-03-15T01:14:55.920Z,13.87
2019-03-15T01:17:29.304Z,13.17
2019-03-15T01:20:03.121Z,12.00
2019-03-15T01:22:36.407Z,10.73
2019-03-15T01:25:10.569Z,11.30
2019-03-15T01:27:45.777Z,13.73
2019-03-15T01:30:19.562Z,12.77
2019-03-15T01:32:52.873Z,15.27
2019-03-15T01:35:26.139Z,16.47
2019-03-15T01:37:59.463Z,17.20
2019-03-15T01:40:32.658Z,14.47
2019-03-15T01:43:06.198Z,12.07
2019-03-15T01:45:39.486Z,13.50
2019-03-15T01:48:13.403Z,13.40
2019-03-15T01:50:47.778Z,12.38
2019-03-15T01:53:23.467Z,11.97
2019-03-15T01:55:57.163Z,10.07
2019-03-15T01:58:30.389Z,10.03
2019-03-15T02:01:04.545Z,8.40
2019-03-15T02:03:38.309Z,9.90
2019-03-15T02:06:11.714Z,9.63
2019-03-15T02:08:44.985Z,8.90
2019-03-15T02:11:19.834Z,5.80
2019-03-15T02:13:53.075Z,6.63
2019-03-15T02:16:27.293Z,8.00
2019-03-15T02:19:00.608Z,6.43
2019-03-15T02:21:33.866Z,5.47
2019-03-15T02:24:07.090Z,5.70
2019-03-15T02:26:40.440Z,6.83
2019-03-15T02:29:14.742Z,7.00
2019-03-15T02:31:48.120Z,5.43
2019-03-15T02:34:21.482Z,6.50
2019-03-15T02:36:56.577Z,5.60
2019-03-15T02:39:29.832Z,7.10
2019-03-15T02:42:03.125Z,6.53
2019-03-15T02:44:36.553Z,6.57
2019-03-15T02:47:09.871Z,6.93
2019-03-15T02:49:43.299Z,6.40
2019-03-15T02:52:16.534Z,6.53
2019-03-15T02:54:49.825Z,5.20
2019-03-15T02:57:23.029Z,5.66
2019-03-15T02:59:56.337Z,6.03
2019-03-15T03:02:29.809Z,5.53
2019-03-15T03:05:02.958Z,6.70
2019-03-15T03:07:36.543Z,5.10
2019-03-15T03:10:24.202Z,5.07
2019-03-15T03:13:01.367Z,5.37
2019-03-15T03:15:34.581Z,5.40
2019-03-15T03:18:07.802Z,5.63
2019-03-15T03:20:42.818Z,5.93
2019-03-15T03:23:16.138Z,5.50
2019-03-15T03:25:49.493Z,5.50
2019-03-15T03:28:22.805Z,5.75
2019-03-15T03:30:56.152Z,6.30
2019-03-15T03:33:30.890Z,6.57
2019-03-15T03:36:04.245Z,6.33
2019-03-15T03:38:39.097Z,5.17
2019-03-15T03:41:12.343Z,5.13
2019-03-15T03:43:45.924Z,4.80
2019-03-15T03:46:19.275Z,4.53
2019-03-15T03:48:53.989Z,4.63
2019-03-15T03:51:27.375Z,4.58
2019-03-15T03:54:00.694Z,5.70
2019-03-15T03:56:43.855Z,5.53
2019-03-15T03:59:21.521Z,5.35
2019-03-15T04:01:57.196Z,4.50
2019-03-15T04:04:29.286Z,4.97
2019-03-15T04:07:02.744Z,4.43
2019-03-15T04:09:36.264Z,4.80
2019-03-15T04:12:10.939Z,5.90
2019-03-15T04:14:47.117Z,5.20
2019-03-15T04:17:22.086Z,5.80
2019-03-15T04:19:58.416Z,5.72
2019-03-15T04:22:35.608Z,5.47
2019-03-15T04:25:12.075Z,6.20
2019-03-15T04:27:47.153Z,8.47
2019-03-15T04:30:23.910Z,5.77
2019-03-15T04:32:59.409Z,6.00
2019-03-15T04:35:34.596Z,6.10
2019-03-15T04:38:11.115Z,8.30
2019-03-15T04:40:45.063Z,10.13
2019-03-15T04:43:19.328Z,5.87
2019-03-15T04:45:52.685Z,5.80
2019-03-15T04:48:26.270Z,5.27
2019-03-15T04:50:59.705Z,4.75
2019-03-15T04:53:33.101Z,4.33
2019-03-15T04:56:06.388Z,4.07
2019-03-15T04:58:39.897Z,4.90
2019-03-15T05:01:13.293Z,4.70
2019-03-15T05:03:46.907Z,4.62
2019-03-15T05:06:20.140Z,4.43
2019-03-15T05:08:53.477Z,4.40
2019-03-15T05:11:26.964Z,3.83
2019-03-15T05:14:01.675Z,3.73
2019-03-15T05:16:35.176Z,4.00
2019-03-15T05:19:08.449Z,4.13
2019-03-15T05:21:41.680Z,4.50
2019-03-15T05:24:15.295Z,4.67
2019-03-15T05:26:50.009Z,4.63
2019-03-15T05:29:23.226Z,4.13
2019-03-15T05:31:56.514Z,4.03
2019-03-15T05:34:29.677Z,3.90
2019-03-15T05:37:03.458Z,4.37
2019-03-15T05:39:36.686Z,4.40
2019-03-15T05:42:12.488Z,4.03
2019-03-15T05:44:44.896Z,4.27
2019-03-15T05:47:18.902Z,4.17
2019-03-15T05:49:52.236Z,4.13
2019-03-15T05:52:25.565Z,4.63
2019-03-15T05:54:59.018Z,4.10
2019-03-15T05:57:32.410Z,4.07
2019-03-15T06:00:06.685Z,4.47
2019-03-15T06:02:39.999Z,4.47
2019-03-15T06:05:13.598Z,4.63
2019-03-15T06:07:47.051Z,5.27
2019-03-15T06:10:22.505Z,4.30
2019-03-15T06:12:55.110Z,4.07
2019-03-15T06:15:28.623Z,4.10
2019-03-15T06:18:06.696Z,4.50
2019-03-15T06:20:39.246Z,4.80
2019-03-15T06:23:12.569Z,5.40
2019-03-15T06:25:51.796Z,4.80
2019-03-15T06:28:24.179Z,4.50
2019-03-15T06:30:57.522Z,4.57
2019-03-15T06:33:32.147Z,5.25
2019-03-15T06:36:05.615Z,4.67
2019-03-15T06:38:38.989Z,4.30
2019-03-15T06:41:23.684Z,4.10
2019-03-15T06:43:47.809Z,3.90
2019-03-15T06:46:21.519Z,4.93
2019-03-15T06:48:55.159Z,4.95
2019-03-15T06:51:29.837Z,4.90
2019-03-15T06:54:11.492Z,4.50
2019-03-15T06:56:38.447Z,4.40
2019-03-15T06:59:11.947Z,4.90
2019-03-15T07:01:45.188Z,4.67
2019-03-15T07:04:18.599Z,5.00
2019-03-15T07:06:52.271Z,4.67
2019-03-15T07:09:25.847Z,4.40
2019-03-15T07:12:09.380Z,4.30
2019-03-15T07:14:36.265Z,4.50
2019-03-15T07:17:09.516Z,4.43
2019-03-15T07:19:42.990Z,4.90
2019-03-15T07:22:19.943Z,4.07
2019-03-15T07:24:53.388Z,4.70
2019-03-15T07:27:26.757Z,4.53
2019-03-15T07:30:00.575Z,4.05
2019-03-15T07:32:35.308Z,4.20
2019-03-15T07:35:09.465Z,4.50
2019-03-15T07:37:45.387Z,4.63
2019-03-15T07:40:19.121Z,4.37
2019-03-15T07:42:52.635Z,4.80
2019-03-15T07:45:26.286Z,4.33
2019-03-15T07:48:00.958Z,4.67
2019-03-15T07:50:34.437Z,4.80
2019-03-15T07:53:07.997Z,4.87
2019-03-15T07:55:41.805Z,4.60
2019-03-15T07:58:15.060Z,4.67
2019-03-15T08:00:48.552Z,4.80
2019-03-15T08:03:21.884Z,4.30
2019-03-15T08:05:56.230Z,4.25
2019-03-15T08:08:29.515Z,4.37
2019-03-15T08:11:02.805Z,4.40
2019-03-15T08:13:36.228Z,4.10
2019-03-15T08:16:09.607Z,4.20
2019-03-15T08:18:43.010Z,4.23
2019-03-15T08:21:16.413Z,4.12
2019-03-15T08:23:49.792Z,4.40
2019-03-15T08:26:23.122Z,4.17
2019-03-15T08:28:57.000Z,4.30
2019-03-15T08:31:30.252Z,4.30
2019-03-15T08:34:05.275Z,4.93
2019-03-15T08:36:40.046Z,4.40
2019-03-15T08:39:13.598Z,4.43
2019-03-15T08:41:47.056Z,3.90
2019-03-15T08:44:20.419Z,4.50
2019-03-15T08:46:57.148Z,4.20
2019-03-15T08:49:32.115Z,3.83
2019-03-15T08:52:09.553Z,4.13
2019-03-15T08:54:46.406Z,4.27
2019-03-15T08:57:17.867Z,4.47
2019-03-15T08:59:56.830Z,4.40
2019-03-15T09:02:26.952Z,4.10
2019-03-15T09:05:01.544Z,4.50
2019-03-15T09:07:35.157Z,4.40
2019-03-15T09:10:24.035Z,4.47
2019-03-15T09:12:54.411Z,4.07
2019-03-15T09:15:27.677Z,4.23
2019-03-15T09:18:02.401Z,4.40
2019-03-15T09:20:38.695Z,3.97
2019-03-15T09:23:12.144Z,3.80
2019-03-15T09:25:45.811Z,4.23
2019-03-15T09:28:19.070Z,4.00
2019-03-15T09:30:54.094Z,4.00
2019-03-15T09:33:27.732Z,4.40
2019-03-15T09:36:01.310Z,4.43
2019-03-15T09:38:36.360Z,4.37
2019-03-15T09:41:09.744Z,4.60
2019-03-15T09:43:45.448Z,3.70
2019-03-15T09:46:18.671Z,4.33
2019-03-15T09:48:53.042Z,4.27
2019-03-15T09:51:26.568Z,4.33
2019-03-15T09:53:59.987Z,5.20
2019-03-15T09:56:33.813Z,4.90
2019-03-15T09:59:09.377Z,5.90
2019-03-15T10:01:43.211Z,5.80
2019-03-15T10:04:17.420Z,6.62
2019-03-15T10:06:51.648Z,7.33
2019-03-15T10:09:27.956Z,8.05
2019-03-15T10:12:02.163Z,8.20
2019-03-15T10:14:36.707Z,7.40
2019-03-15T10:17:11.224Z,7.97
2019-03-15T10:19:46.034Z,9.58
2019-03-15T10:22:20.837Z,9.23
2019-03-15T10:24:55.996Z,9.37
2019-03-15T10:27:33.197Z,10.80
2019-03-15T10:30:14.851Z,10.35
2019-03-15T10:32:50.984Z,10.10
2019-03-15T10:35:26.960Z,10.23
2019-03-15T10:38:01.962Z,10.27
2019-03-15T10:40:40.152Z,9.20
2019-03-15T10:43:15.190Z,10.50
2019-03-15T10:45:51.955Z,9.53
2019-03-15T10:48:28.841Z,9.67
2019-03-15T10:51:03.990Z,9.28
2019-03-15T10:53:38.519Z,9.37
2019-03-15T10:56:14.233Z,9.47
2019-03-15T10:58:51.579Z,10.07
2019-03-15T11:01:26.219Z,9.87
2019-03-15T11:04:00.953Z,9.60
2019-03-15T11:06:39.001Z,9.80
2019-03-15T11:09:16.079Z,10.03
2019-03-15T11:11:55.043Z,11.07
2019-03-15T11:14:29.188Z,10.30
2019-03-15T11:17:03.066Z,11.13
2019-03-15T11:19:37.109Z,11.23
2019-03-15T11:22:13.269Z,11.57
2019-03-15T11:24:47.210Z,11.10
2019-03-15T11:27:21.637Z,10.83
2019-03-15T11:29:57.592Z,10.30
2019-03-15T11:32:33.243Z,11.60
2019-03-15T11:35:13.032Z,10.40
2019-03-15T11:37:47.108Z,11.70
2019-03-15T11:40:21.213Z,10.70
2019-03-15T11:42:55.213Z,11.77
2019-03-15T11:45:29.439Z,10.93
2019-03-15T11:48:04.469Z,12.40
2019-03-15T11:50:41.307Z,13.23
2019-03-15T11:53:18.716Z,12.80
2019-03-15T11:55:51.378Z,11.40
2019-03-15T11:58:27.774Z,12.00
2019-03-15T12:01:02.270Z,13.40
2019-03-15T12:03:36.566Z,13.07
2019-03-15T12:06:10.935Z,13.53
2019-03-15T12:08:46.943Z,14.23
2019-03-15T12:11:23.228Z,13.47
2019-03-15T12:13:57.756Z,14.43
2019-03-15T12:16:32.274Z,14.37
2019-03-15T12:19:06.771Z,15.07
2019-03-15T12:21:42.974Z,14.87
2019-03-15T12:24:17.386Z,15.53
2019-03-15T12:26:53.927Z,15.17
2019-03-15T12:29:28.645Z,15.47
2019-03-15T12:32:03.509Z,15.50
2019-03-15T12:34:40.145Z,16.57
2019-03-15T12:37:15.605Z,17.03
2019-03-15T12:39:50.620Z,18.10
2019-03-15T12:42:27.595Z,16.57
2019-03-15T12:45:03.766Z,18.00
2019-03-15T12:47:39.399Z,18.30
2019-03-15T12:50:18.058Z,18.00
2019-03-15T12:52:52.825Z,17.67
2019-03-15T12:55:29.354Z,19.03
2019-03-15T12:58:03.346Z,19.30
2019-03-15T13:00:37.427Z,19.00
2019-03-15T13:03:12.041Z,20.37
2019-03-15T13:05:46.526Z,20.63
2019-03-15T13:08:20.937Z,21.07
2019-03-15T13:10:55.035Z,20.83
2019-03-15T13:13:29.787Z,20.72
2019-03-15T13:16:05.841Z,20.37
2019-03-15T13:18:42.611Z,22.15
2019-03-15T13:21:20.802Z,20.60
2019-03-15T13:23:55.564Z,21.33
2019-03-15T13:26:30.367Z,22.03
2019-03-15T13:29:05.241Z,21.10
2019-03-15T13:31:39.753Z,20.93
2019-03-15T13:34:14.432Z,18.83
2019-03-15T13:36:53.988Z,19.87
2019-03-15T13:39:28.627Z,20.03
2019-03-15T13:42:02.525Z,18.53
2019-03-15T13:44:38.397Z,19.13
2019-03-15T13:47:14.678Z,20.73
2019-03-15T13:49:52.853Z,19.53
2019-03-15T13:52:27.487Z,19.47
2019-03-15T13:55:01.825Z,19.23
2019-03-15T13:57:36.196Z,19.27
2019-03-15T14:00:16.132Z,19.50
2019-03-15T14:02:50.640Z,19.13
2019-03-15T14:05:24.511Z,18.70
2019-03-15T14:08:11.217Z,20.03
2019-03-15T14:10:49.291Z,19.43
2019-03-15T14:13:15.519Z,20.03
2019-03-15T14:15:51.744Z,20.40
2019-03-15T14:18:26.651Z,20.33
2019-03-15T14:21:03.559Z,20.57
2019-03-15T14:23:38.367Z,20.93
2019-03-15T14:26:12.550Z,21.30
2019-03-15T14:28:47.026Z,21.03
2019-03-15T14:31:21.844Z,20.30
2019-03-15T14:33:56.345Z,19.77
2019-03-15T14:36:31.883Z,22.13
2019-03-15T14:39:06.769Z,21.27
2019-03-15T14:41:41.116Z,21.63
2019-03-15T14:44:18.076Z,21.93
2019-03-15T14:46:50.324Z,21.73
2019-03-15T14:49:24.748Z,23.10
2019-03-15T14:51:59.832Z,21.80
2019-03-15T14:54:34.381Z,20.90
2019-03-15T14:57:10.440Z,22.80
2019-03-15T14:59:44.879Z,21.40
2019-03-15T15:02:18.916Z,21.33
2019-03-15T15:04:53.363Z,21.80
2019-03-15T15:07:27.791Z,21.60
2019-03-15T15:10:03.421Z,21.47
2019-03-15T15:12:37.678Z,24.00
2019-03-15T15:15:13.974Z,23.40
2019-03-15T15:17:48.096Z,24.23
2019-03-15T15:20:23.012Z,24.83
2019-03-15T15:22:56.826Z,25.53
2019-03-15T15:25:33.706Z,24.67
2019-03-15T15:28:07.767Z,26.13
2019-03-15T15:30:41.982Z,25.63
2019-03-15T15:33:16.192Z,27.50
2019-03-15T15:35:51.084Z,27.37
2019-03-15T15:38:24.716Z,29.00
2019-03-15T15:40:59.083Z,30.47
2019-03-15T15:43:33.235Z,30.97
2019-03-15T15:46:07.420Z,30.88
2019-03-15T15:48:41.534Z,30.63
2019-03-15T15:51:16.555Z,31.63
2019-03-15T15:53:50.245Z,30.83
2019-03-15T15:56:25.080Z,30.47
2019-03-15T15:59:02.903Z,30.03
2019-03-15T16:01:37.124Z,29.93
2019-03-15T16:04:11.068Z,28.25
2019-03-15T16:06:44.802Z,29.43
2019-03-15T16:09:18.393Z,27.70
2019-03-15T16:11:53.803Z,28.57
2019-03-15T16:14:27.492Z,29.20
2019-03-15T16:17:01.394Z,27.60
2019-03-15T16:19:35.209Z,27.63
2019-03-15T16:22:09.269Z,27.93
2019-03-15T16:24:43.270Z,26.77
2019-03-15T16:27:17.413Z,28.63
2019-03-15T16:29:51.571Z,27.80
2019-03-15T16:32:27.342Z,28.40
2019-03-15T16:35:01.104Z,28.00
2019-03-15T16:37:35.296Z,27.37
2019-03-15T16:40:11.580Z,31.70
2019-03-15T16:42:46.132Z,27.80
2019-03-15T16:45:30.446Z,27.73
2019-03-15T16:48:04.812Z,28.00
2019-03-15T16:50:38.903Z,27.05
2019-03-15T16:53:14.313Z,26.30
2019-03-15T16:55:50.712Z,25.87
2019-03-15T16:58:24.792Z,25.80
2019-03-15T17:00:58.668Z,25.40
2019-03-15T17:03:31.958Z,25.87
2019-03-15T17:06:05.247Z,26.27
2019-03-15T17:08:40.504Z,25.50
2019-03-15T17:11:14.234Z,25.57
2019-03-15T17:13:47.907Z,26.57
2019-03-15T17:16:21.564Z,24.87
2019-03-15T17:18:55.709Z,25.50
2019-03-15T17:21:29.117Z,24.53
2019-03-15T17:24:06.097Z,26.56
2019-03-15T17:26:40.125Z,25.20
2019-03-15T17:29:13.523Z,27.40
2019-03-15T17:31:47.259Z,26.63
2019-03-15T17:34:20.646Z,27.25
2019-03-15T17:37:06.161Z,26.40
2019-03-15T17:39:29.573Z,26.13
2019-03-15T17:42:03.894Z,27.73
2019-03-15T17:44:37.685Z,26.83
2019-03-15T17:47:12.437Z,27.63
2019-03-15T17:49:46.151Z,26.60
2019-03-15T17:52:20.267Z,27.27
2019-03-15T17:54:53.934Z,28.27
2019-03-15T17:57:27.560Z,27.93
2019-03-15T18:00:21.564Z,29.37
2019-03-15T18:02:55.722Z,28.17
2019-03-15T18:05:29.545Z,28.97
2019-03-15T18:08:05.721Z,29.18
2019-03-15T18:10:39.681Z,28.80
2019-03-15T18:13:13.736Z,29.15
2019-03-15T18:15:51.120Z,29.60
2019-03-15T18:18:30.555Z,29.80
2019-03-15T18:21:10.565Z,29.00
2019-03-15T18:23:46.486Z,28.30
2019-03-15T18:26:20.210Z,28.60
2019-03-15T18:28:53.894Z,27.90
2019-03-15T18:31:27.494Z,29.53
2019-03-15T18:34:03.050Z,28.47
2019-03-15T18:36:36.846Z,28.40
2019-03-15T18:39:10.932Z,29.90
2019-03-15T18:41:45.735Z,27.50
2019-03-15T18:44:19.701Z,27.67
2019-03-15T18:46:55.397Z,27.20
2019-03-15T18:49:31.150Z,27.73
2019-03-15T18:52:04.933Z,29.27
2019-03-15T18:54:38.618Z,26.75
2019-03-15T18:57:12.503Z,27.17
2019-03-15T18:59:47.491Z,29.00
2019-03-15T19:02:21.376Z,27.03
2019-03-15T19:04:55.194Z,27.40
2019-03-15T19:07:29.197Z,28.23
2019-03-15T19:10:03.006Z,27.83
2019-03-15T19:12:40.076Z,27.33
2019-03-15T19:15:22.267Z,27.17
2019-03-15T19:17:56.162Z,28.10
2019-03-15T19:20:30.075Z,27.33
2019-03-15T19:23:04.872Z,28.35
2019-03-15T19:25:40.416Z,26.85
2019-03-15T19:28:14.290Z,26.13
2019-03-15T19:30:48.118Z,27.73
2019-03-15T19:33:21.349Z,27.63
2019-03-15T19:35:54.714Z,27.20
2019-03-15T19:38:28.006Z,26.97
2019-03-15T19:41:02.223Z,27.90
2019-03-15T19:43:35.675Z,27.10
2019-03-15T19:46:09.195Z,26.55
2019-03-15T19:48:42.457Z,27.10
2019-03-15T19:51:15.683Z,27.03
2019-03-15T19:53:49.154Z,26.93
2019-03-15T19:56:23.766Z,26.77
2019-03-15T19:58:57.644Z,27.67
2019-03-15T20:01:30.985Z,28.13
2019-03-15T20:04:05.985Z,26.77
2019-03-15T20:06:39.425Z,27.15
2019-03-15T20:09:12.790Z,26.63
2019-03-15T20:11:46.082Z,27.13
2019-03-15T20:14:19.386Z,26.33
2019-03-15T20:16:52.787Z,25.50
2019-03-15T20:19:26.032Z,28.43
2019-03-15T20:22:00.611Z,26.90
2019-03-15T20:24:36.842Z,27.35
2019-03-15T20:27:11.417Z,25.40
2019-03-15T20:29:45.982Z,26.30
2019-03-15T20:32:19.270Z,25.23
2019-03-15T20:34:52.734Z,25.90
2019-03-15T20:37:26.088Z,25.33
2019-03-15T20:39:59.303Z,25.30
2019-03-15T20:42:35.545Z,26.03
2019-03-15T20:45:19.924Z,24.13
2019-03-15T20:47:53.325Z,23.87
2019-03-15T20:50:26.537Z,24.33
2019-03-15T20:53:08.092Z,25.20
2019-03-15T20:55:35.141Z,24.07
2019-03-15T20:58:08.529Z,24.30
2019-03-15T21:00:41.848Z,24.60
2019-03-15T21:03:15.176Z,25.40
2019-03-15T21:05:48.413Z,24.73
2019-03-15T21:08:21.704Z,22.90
2019-03-15T21:10:55.018Z,22.70
2019-03-15T21:13:28.235Z,22.77
2019-03-15T21:16:01.633Z,23.50
2019-03-15T21:18:35.372Z,22.30
2019-03-15T21:21:08.652Z,20.87
2019-03-15T21:23:42.005Z,23.10
2019-03-15T21:26:15.204Z,21.13
2019-03-15T21:28:49.750Z,21.83
2019-03-15T21:31:22.956Z,22.90
2019-03-15T21:33:57.756Z,21.80
2019-03-15T21:36:31.039Z,22.07
2019-03-15T21:39:05.823Z,20.80
2019-03-15T21:41:40.720Z,21.23
2019-03-15T21:44:17.198Z,21.67
2019-03-15T21:46:48.704Z,20.50
2019-03-15T21:49:23.271Z,22.55
2019-03-15T21:51:58.198Z,21.10
2019-03-15T21:54:31.596Z,20.67
2019-03-15T21:57:05.444Z,20.85
2019-03-15T21:59:40.520Z,21.93
2019-03-15T22:02:16.486Z,20.72
2019-03-15T22:04:49.905Z,20.97
2019-03-15T22:07:23.145Z,22.23
2019-03-15T22:09:56.436Z,20.67
2019-03-15T22:12:29.879Z,20.60
2019-03-15T22:15:03.205Z,21.37
2019-03-15T22:17:36.663Z,21.57
2019-03-15T22:20:20.947Z,22.13
2019-03-15T22:22:54.230Z,21.60
2019-03-15T22:25:27.487Z,20.93
2019-03-15T22:28:02.449Z,22.10
2019-03-15T22:30:35.876Z,21.47
2019-03-15T22:33:09.287Z,20.80
2019-03-15T22:35:42.680Z,22.23
2019-03-15T22:38:25.622Z,21.07
2019-03-15T22:40:50.674Z,21.67
2019-03-15T22:43:23.980Z,20.70
2019-03-15T22:45:57.406Z,20.03
2019-03-15T22:48:30.824Z,21.13
2019-03-15T22:51:04.059Z,20.23
2019-03-15T22:53:37.390Z,21.10
2019-03-15T22:56:10.806Z,19.83
2019-03-15T22:58:45.862Z,20.50
2019-03-15T23:01:29.671Z,20.43
2019-03-15T23:03:53.717Z,21.00
2019-03-15T23:06:27.190Z,21.07
2019-03-15T23:09:00.684Z,19.60
2019-03-15T23:11:35.145Z,20.30
2019-03-15T23:14:08.696Z,20.13
2019-03-15T23:16:42.396Z,21.30
2019-03-15T23:19:16.006Z,20.10
2019-03-15T23:21:51.740Z,21.25
2019-03-15T23:24:24.101Z,19.80
2019-03-15T23:26:57.764Z,20.47
2019-03-15T23:29:31.168Z,21.00
2019-03-15T23:32:04.384Z,21.07
2019-03-15T23:34:40.992Z,21.87
2019-03-15T23:37:14.417Z,20.95
2019-03-15T23:39:47.756Z,22.82
2019-03-15T23:42:21.373Z,22.37
2019-03-15T23:44:59.645Z,21.15
2019-03-15T23:47:33.087Z,21.02
2019-03-15T23:50:11.689Z,20.73
2019-03-15T23:52:48.203Z,21.47
2019-03-15T23:55:22.784Z,20.67
2019-03-15T23:57:56.097Z,21.30
